createdAt,value
2022-08-10T00:00:56.809Z,5.03
2022-08-10T00:03:24.663Z,4.00
2022-08-10T00:05:54.802Z,3.63
2022-08-10T00:08:24.027Z,3.95
2022-08-10T00:10:52.159Z,3.78
2022-08-10T00:13:19.821Z,3.15
2022-08-10T00:15:53.626Z,3.65
2022-08-10T00:18:34.538Z,2.90
2022-08-10T00:21:04.729Z,2.58
2022-08-10T00:23:32.311Z,2.75
2022-08-10T00:26:00.221Z,3.03
2022-08-10T00:28:27.830Z,3.63
2022-08-10T00:30:55.544Z,3.30
2022-08-10T00:33:24.685Z,2.90
2022-08-10T00:35:52.339Z,3.30
2022-08-10T00:38:20.049Z,2.90
2022-08-10T00:40:47.679Z,2.80
2022-08-10T00:43:15.230Z,2.90
2022-08-10T00:45:58.508Z,3.13
2022-08-10T00:48:29.915Z,2.92
2022-08-10T00:50:58.910Z,2.78
2022-08-10T00:53:26.835Z,2.90
2022-08-10T00:57:12.372Z,3.50
2022-08-10T00:58:42.270Z,3.38
2022-08-10T01:01:22.589Z,3.38
2022-08-10T01:04:57.620Z,3.05
2022-08-10T01:06:49.075Z,3.22
2022-08-10T01:09:18.611Z,3.08
2022-08-10T01:12:38.385Z,3.25
2022-08-10T01:14:39.716Z,3.17
2022-08-10T01:17:09.851Z,3.45
2022-08-10T01:19:47.863Z,3.45
2022-08-10T01:22:25.952Z,3.65
2022-08-10T01:24:59.626Z,3.75
2022-08-10T01:27:29.734Z,3.67
2022-08-10T01:30:00.800Z,3.75
2022-08-10T01:32:33.739Z,4.18
2022-08-10T01:35:06.919Z,3.80
2022-08-10T01:37:37.938Z,4.43
2022-08-10T01:40:09.775Z,4.50
2022-08-10T01:42:37.908Z,4.43
2022-08-10T01:45:08.348Z,5.00
2022-08-10T01:47:54.506Z,4.75
2022-08-10T01:50:26.087Z,5.43
2022-08-10T01:52:56.819Z,5.85
2022-08-10T01:55:25.907Z,6.57
2022-08-10T01:57:54.440Z,8.00
2022-08-10T02:00:24.159Z,9.23
2022-08-10T02:02:52.482Z,24.33
2022-08-10T02:05:20.965Z,28.00
2022-08-10T02:07:49.877Z,18.27
2022-08-10T02:10:20.073Z,20.33
2022-08-10T02:12:48.545Z,21.05
2022-08-10T02:15:17.443Z,21.05
2022-08-10T02:18:00.568Z,18.73
2022-08-10T02:20:32.992Z,23.38
2022-08-10T02:23:01.771Z,18.55
2022-08-10T02:25:42.715Z,19.65
2022-08-10T02:28:30.404Z,15.50
2022-08-10T02:31:01.314Z,15.23
2022-08-10T02:33:30.797Z,9.73
2022-08-10T02:36:00.838Z,8.52
2022-08-10T02:38:57.542Z,6.15
2022-08-10T02:45:12.322Z,5.88
2022-08-10T02:45:20.242Z,5.60
2022-08-10T02:47:01.344Z,5.90
2022-08-10T02:49:36.436Z,5.20
2022-08-10T02:52:08.925Z,4.50
2022-08-10T02:54:39.570Z,4.63
2022-08-10T02:57:10.034Z,4.50
2022-08-10T02:59:40.927Z,4.53
2022-08-10T03:02:11.435Z,4.65
2022-08-10T03:04:56.068Z,4.88
2022-08-10T03:07:44.142Z,4.43
2022-08-10T03:10:14.855Z,4.53
2022-08-10T03:12:43.402Z,5.47
2022-08-10T03:15:15.881Z,4.95
2022-08-10T03:17:58.357Z,5.00
2022-08-10T03:20:37.650Z,4.68
2022-08-10T03:23:08.961Z,4.85
2022-08-10T03:25:36.763Z,4.80
2022-08-10T03:28:04.641Z,4.22
2022-08-10T03:30:34.374Z,4.38
2022-08-10T03:33:03.635Z,4.10
2022-08-10T03:35:32.636Z,4.18
2022-08-10T03:38:00.581Z,3.85
2022-08-10T03:40:32.253Z,4.15
2022-08-10T03:43:16.677Z,4.95
2022-08-10T03:45:55.071Z,4.78
2022-08-10T03:48:32.118Z,5.63
2022-08-10T03:51:14.519Z,4.82
2022-08-10T03:54:03.375Z,4.95
2022-08-10T03:56:32.246Z,5.03
2022-08-10T03:59:00.537Z,5.03
2022-08-10T04:02:45.312Z,4.75
2022-08-10T04:04:21.017Z,6.00
2022-08-10T04:06:54.960Z,5.15
2022-08-10T04:09:23.231Z,5.10
2022-08-10T04:11:50.961Z,7.15
2022-08-10T04:14:47.424Z,5.55
2022-08-10T04:17:09.568Z,5.47
2022-08-10T04:19:42.793Z,5.25
2022-08-10T04:22:14.879Z,4.65
2022-08-10T04:24:42.731Z,4.45
2022-08-10T04:27:10.485Z,4.45
2022-08-10T04:29:38.361Z,4.70
2022-08-10T04:32:06.397Z,4.82
2022-08-10T04:34:34.321Z,5.07
2022-08-10T04:37:08.841Z,4.35
2022-08-10T04:39:38.437Z,3.92
2022-08-10T04:42:07.078Z,4.50
2022-08-10T04:44:35.067Z,5.43
2022-08-10T04:47:02.703Z,4.97
2022-08-10T04:49:55.625Z,5.18
2022-08-10T04:52:18.560Z,5.55
2022-08-10T04:54:47.459Z,5.95
2022-08-10T04:57:15.008Z,6.50
2022-08-10T04:59:43.127Z,6.45
2022-08-10T05:02:30.043Z,6.25
2022-08-10T05:04:58.470Z,7.18
2022-08-10T05:07:26.400Z,6.30
2022-08-10T05:10:01.193Z,6.20
2022-08-10T05:12:36.037Z,6.05
2022-08-10T05:15:04.991Z,5.80
2022-08-10T05:17:32.553Z,5.32
2022-08-10T05:20:01.550Z,5.65
2022-08-10T05:22:33.430Z,5.45
2022-08-10T05:25:02.685Z,5.47
2022-08-10T05:27:30.461Z,5.00
2022-08-10T05:30:01.468Z,3.78
2022-08-10T05:32:30.732Z,4.32
2022-08-10T05:34:58.581Z,3.50
2022-08-10T05:38:11.978Z,11.60
2022-08-10T05:40:15.558Z,10.13
2022-08-10T05:42:43.131Z,7.85
2022-08-10T05:45:15.275Z,4.90
2022-08-10T05:48:56.406Z,3.13
2022-08-10T05:50:31.424Z,3.13
2022-08-10T05:53:02.552Z,2.70
2022-08-10T05:55:48.023Z,3.10
2022-08-10T05:58:15.842Z,2.60
2022-08-10T06:00:50.077Z,3.22
2022-08-10T06:03:24.005Z,2.88
2022-08-10T06:05:52.672Z,2.88
2022-08-10T06:08:21.563Z,3.00
2022-08-10T06:12:24.703Z,3.30
2022-08-10T06:14:12.561Z,2.95
2022-08-10T06:16:42.794Z,3.10
2022-08-10T06:19:11.258Z,2.50
2022-08-10T06:22:00.639Z,3.10
2022-08-10T06:24:30.700Z,3.80
2022-08-10T06:27:00.332Z,3.63
2022-08-10T06:29:29.603Z,3.47
2022-08-10T06:31:58.169Z,3.10
2022-08-10T06:34:27.892Z,3.25
2022-08-10T06:36:56.248Z,3.20
2022-08-10T06:39:39.298Z,2.97
2022-08-10T06:42:16.655Z,2.45
2022-08-10T06:44:48.364Z,2.50
2022-08-10T06:47:23.203Z,3.45
2022-08-10T06:49:52.981Z,3.05
2022-08-10T06:52:21.020Z,3.28
2022-08-10T06:54:49.285Z,6.28
2022-08-10T06:57:18.906Z,9.10
2022-08-10T06:59:49.056Z,5.60
2022-08-10T07:02:18.173Z,3.72
2022-08-10T07:04:47.339Z,2.90
2022-08-10T07:07:16.615Z,2.25
2022-08-10T07:09:45.069Z,2.53
2022-08-10T07:12:14.971Z,2.75
2022-08-10T07:14:45.267Z,2.55
2022-08-10T07:17:15.675Z,2.88
2022-08-10T07:19:50.081Z,4.53
2022-08-10T07:23:54.138Z,2.50
2022-08-10T07:25:09.812Z,2.13
2022-08-10T07:27:40.699Z,3.00
2022-08-10T07:30:29.112Z,2.20
2022-08-10T07:32:56.961Z,2.08
2022-08-10T07:35:25.256Z,2.28
2022-08-10T07:37:53.694Z,2.50
2022-08-10T07:40:22.383Z,2.40
2022-08-10T07:42:52.258Z,2.50
2022-08-10T07:45:19.989Z,2.25
2022-08-10T07:47:55.068Z,2.70
2022-08-10T07:50:24.403Z,2.33
2022-08-10T07:52:52.952Z,2.50
2022-08-10T07:56:04.147Z,2.30
2022-08-10T07:58:09.873Z,2.65
2022-08-10T08:00:38.716Z,2.67
2022-08-10T08:03:09.260Z,2.63
2022-08-10T08:05:58.366Z,3.00
2022-08-10T08:08:26.123Z,2.65
2022-08-10T08:10:56.651Z,2.42
2022-08-10T08:13:25.745Z,2.30
2022-08-10T08:16:17.291Z,2.83
2022-08-10T08:19:03.897Z,3.00
2022-08-10T08:24:10.408Z,2.80
2022-08-10T08:24:33.110Z,3.13
2022-08-10T08:27:02.650Z,3.75
2022-08-10T08:29:32.617Z,2.97
2022-08-10T08:32:02.373Z,3.15
2022-08-10T08:34:32.538Z,2.80
2022-08-10T08:37:01.721Z,2.70
2022-08-10T08:39:29.748Z,2.90
2022-08-10T08:42:04.462Z,2.53
2022-08-10T08:44:36.948Z,3.00
2022-08-10T08:48:02.955Z,2.60
2022-08-10T08:50:17.377Z,2.67
2022-08-10T08:52:49.713Z,3.00
2022-08-10T08:56:04.579Z,3.20
2022-08-10T08:58:19.904Z,3.40
2022-08-10T09:00:52.747Z,3.78
2022-08-10T09:03:42.035Z,3.20
2022-08-10T09:06:20.648Z,3.22
2022-08-10T09:09:00.296Z,3.63
2022-08-10T09:11:31.541Z,2.83
2022-08-10T09:14:01.761Z,2.65
2022-08-10T09:16:31.576Z,2.55
2022-08-10T09:19:04.321Z,2.50
2022-08-10T09:21:52.339Z,2.95
2022-08-10T09:24:32.952Z,2.92
2022-08-10T09:27:04.726Z,2.83
2022-08-10T09:29:33.945Z,2.90
2022-08-10T09:36:17.093Z,2.95
2022-08-10T09:36:25.759Z,2.90
2022-08-10T09:38:02.094Z,3.15
2022-08-10T09:40:59.927Z,3.30
2022-08-10T09:43:31.952Z,3.13
2022-08-10T09:46:02.252Z,3.20
2022-08-10T09:48:32.667Z,3.10
2022-08-10T09:54:01.135Z,3.13
2022-08-10T09:56:31.108Z,3.45
2022-08-10T09:59:45.871Z,3.67
2022-08-10T10:02:00.516Z,3.42
2022-08-10T10:04:36.052Z,3.17
2022-08-10T10:07:06.636Z,3.47
2022-08-10T10:09:39.922Z,3.30
2022-08-10T10:12:12.867Z,3.53
2022-08-10T10:15:01.375Z,3.67
2022-08-10T10:17:35.181Z,3.40
2022-08-10T10:20:07.532Z,3.60
2022-08-10T10:22:41.723Z,3.20
2022-08-10T10:25:20.727Z,3.28
2022-08-10T10:27:50.075Z,3.58
2022-08-10T10:30:19.996Z,3.50
2022-08-10T10:32:58.163Z,3.38
2022-08-10T10:35:30.112Z,3.63
2022-08-10T10:38:00.650Z,3.28
2022-08-10T10:40:36.379Z,2.88
2022-08-10T10:43:08.674Z,3.15
2022-08-10T10:45:50.503Z,3.20
2022-08-10T10:48:28.881Z,3.97
2022-08-10T10:51:01.651Z,3.33
2022-08-10T10:53:32.153Z,3.30
2022-08-10T10:56:15.416Z,3.65
2022-08-10T10:58:47.848Z,3.72
2022-08-10T11:01:20.263Z,3.47
2022-08-10T11:03:56.648Z,3.03
2022-08-10T11:06:39.725Z,3.20
2022-08-10T11:09:12.465Z,2.95
2022-08-10T11:12:03.113Z,3.17
2022-08-10T11:14:37.044Z,3.40
2022-08-10T11:17:07.836Z,3.53
2022-08-10T11:20:02.782Z,3.83
2022-08-10T11:22:36.809Z,4.45
2022-08-10T11:25:09.132Z,4.18
2022-08-10T11:27:43.831Z,3.80
2022-08-10T11:30:13.123Z,3.55
2022-08-10T11:32:47.678Z,3.78
2022-08-10T11:35:21.272Z,3.67
2022-08-10T11:38:30.998Z,3.38
2022-08-10T11:40:44.418Z,3.30
2022-08-10T11:43:15.827Z,3.78
2022-08-10T11:45:52.196Z,4.10
2022-08-10T11:48:52.806Z,4.35
2022-08-10T11:51:20.081Z,3.63
2022-08-10T11:53:51.036Z,3.67
2022-08-10T11:56:25.508Z,4.05
2022-08-10T11:59:16.954Z,4.10
2022-08-10T12:01:45.417Z,3.95
2022-08-10T12:04:13.186Z,3.67
2022-08-10T12:06:55.115Z,4.05
2022-08-10T12:10:05.135Z,3.67
2022-08-10T12:12:13.020Z,3.47
2022-08-10T12:14:47.327Z,3.80
2022-08-10T12:17:17.870Z,3.55
2022-08-10T12:20:01.910Z,3.60
2022-08-10T12:22:32.517Z,4.00
2022-08-10T12:25:01.865Z,4.13
2022-08-10T12:27:32.045Z,4.07
2022-08-10T12:30:03.179Z,3.78
2022-08-10T12:32:33.385Z,3.85
2022-08-10T12:35:02.336Z,4.03
2022-08-10T12:37:32.280Z,4.20
2022-08-10T12:40:33.506Z,3.75
2022-08-10T12:43:02.489Z,3.85
2022-08-10T12:45:44.510Z,4.20
2022-08-10T12:48:14.941Z,4.03
2022-08-10T12:50:43.953Z,3.80
2022-08-10T12:53:15.996Z,4.00
2022-08-10T12:55:43.853Z,3.58
2022-08-10T12:58:59.776Z,4.10
2022-08-10T13:01:16.061Z,3.97
2022-08-10T13:04:22.592Z,3.72
2022-08-10T13:06:34.891Z,3.63
2022-08-10T13:09:12.948Z,3.53
2022-08-10T13:12:37.015Z,3.60
2022-08-10T13:14:32.910Z,4.40
2022-08-10T13:17:03.687Z,4.30
2022-08-10T13:19:37.607Z,4.20
2022-08-10T13:22:24.356Z,4.13
2022-08-10T13:24:55.565Z,3.83
2022-08-10T13:28:00.713Z,3.63
2022-08-10T13:30:15.040Z,3.97
2022-08-10T13:32:48.673Z,4.00
2022-08-10T13:35:17.498Z,3.88
2022-08-10T13:37:46.021Z,3.75
2022-08-10T13:40:15.643Z,4.40
2022-08-10T13:42:45.090Z,4.03
2022-08-10T13:45:14.471Z,4.22
2022-08-10T13:47:48.808Z,3.95
2022-08-10T13:50:35.459Z,4.03
2022-08-10T13:53:11.701Z,3.90
2022-08-10T13:55:48.648Z,4.18
2022-08-10T13:58:24.914Z,4.30
2022-08-10T14:00:54.357Z,3.88
2022-08-10T14:03:23.220Z,3.67
2022-08-10T14:05:53.125Z,4.10
2022-08-10T14:08:22.269Z,3.70
2022-08-10T14:11:08.441Z,3.85
2022-08-10T14:13:42.536Z,3.97
2022-08-10T14:16:12.398Z,3.90
2022-08-10T14:18:42.091Z,3.38
2022-08-10T14:21:11.413Z,3.78
2022-08-10T14:23:53.285Z,3.40
2022-08-10T14:26:23.123Z,3.80
2022-08-10T14:28:53.485Z,3.53
2022-08-10T14:31:24.744Z,3.50
2022-08-10T14:33:54.507Z,3.92
2022-08-10T14:36:30.172Z,3.28
2022-08-10T14:38:58.676Z,3.40
2022-08-10T14:42:01.636Z,3.50
2022-08-10T14:44:18.280Z,3.45
2022-08-10T14:46:51.428Z,3.75
2022-08-10T14:49:25.553Z,3.83
2022-08-10T14:51:59.652Z,3.45
2022-08-10T14:54:29.079Z,3.85
2022-08-10T14:57:10.897Z,3.40
2022-08-10T15:00:24.816Z,5.40
2022-08-10T15:02:40.677Z,3.72
2022-08-10T15:05:17.970Z,3.75
2022-08-10T15:07:47.834Z,3.20
2022-08-10T15:10:28.041Z,3.30
2022-08-10T15:12:58.927Z,3.60
2022-08-10T15:15:28.928Z,3.38
2022-08-10T15:17:58.031Z,3.20
2022-08-10T15:20:27.468Z,3.28
2022-08-10T15:23:01.249Z,3.40
2022-08-10T15:25:29.881Z,3.80
2022-08-10T15:28:05.787Z,4.13
2022-08-10T15:30:39.406Z,3.35
2022-08-10T15:34:03.307Z,3.28
2022-08-10T15:36:34.012Z,3.55
2022-08-10T15:39:04.694Z,3.65
2022-08-10T15:41:59.427Z,3.38
2022-08-10T15:44:39.037Z,3.55
2022-08-10T15:47:09.052Z,4.05
2022-08-10T15:49:45.229Z,2.95
2022-08-10T15:53:00.064Z,3.67
2022-08-10T15:55:43.803Z,4.07
2022-08-10T15:58:02.439Z,3.33
2022-08-10T16:00:30.505Z,3.40
2022-08-10T16:03:00.108Z,3.10
2022-08-10T16:05:40.736Z,3.33
2022-08-10T16:08:22.172Z,3.53
2022-08-10T16:10:54.888Z,2.72
2022-08-10T16:13:51.057Z,3.00
2022-08-10T16:16:12.457Z,3.40
2022-08-10T16:18:41.792Z,3.30
2022-08-10T16:21:14.288Z,3.20
2022-08-10T16:23:42.876Z,3.10
2022-08-10T16:26:15.538Z,3.00
2022-08-10T16:28:47.784Z,3.40
2022-08-10T16:31:16.952Z,3.20
2022-08-10T16:33:53.419Z,3.47
2022-08-10T16:36:23.387Z,3.72
2022-08-10T16:38:51.415Z,2.95
2022-08-10T16:42:04.612Z,3.22
2022-08-10T16:44:11.273Z,3.05
2022-08-10T16:46:41.988Z,3.10
2022-08-10T16:49:10.284Z,3.28
2022-08-10T16:51:38.953Z,3.13
2022-08-10T16:54:07.975Z,3.55
2022-08-10T16:56:49.056Z,3.42
2022-08-10T16:59:21.071Z,3.28
2022-08-10T17:01:53.856Z,3.30
2022-08-10T17:04:23.367Z,3.60
2022-08-10T17:06:56.086Z,3.50
2022-08-10T17:09:26.933Z,3.35
2022-08-10T17:11:58.056Z,3.67
2022-08-10T17:14:27.035Z,3.28
2022-08-10T17:16:55.933Z,3.17
2022-08-10T17:19:24.515Z,3.10
2022-08-10T17:21:53.440Z,3.35
2022-08-10T17:24:22.288Z,3.20
2022-08-10T17:26:50.647Z,3.22
2022-08-10T17:29:58.585Z,3.90
2022-08-10T17:32:15.548Z,3.60
2022-08-10T17:34:46.613Z,3.10
2022-08-10T17:37:16.285Z,3.75
2022-08-10T17:39:45.864Z,3.45
2022-08-10T17:42:18.119Z,3.22
2022-08-10T17:44:50.402Z,6.05
2022-08-10T17:47:19.382Z,3.47
2022-08-10T17:49:47.934Z,3.45
2022-08-10T17:52:20.950Z,3.15
2022-08-10T17:54:54.480Z,3.85
2022-08-10T17:57:22.331Z,3.47
2022-08-10T17:59:52.675Z,3.50
2022-08-10T18:02:22.273Z,4.03
2022-08-10T18:04:52.375Z,3.78
2022-08-10T18:07:21.828Z,5.13
2022-08-10T18:09:50.580Z,12.05
2022-08-10T18:12:20.672Z,3.50
2022-08-10T18:14:54.283Z,3.97
2022-08-10T18:17:22.649Z,3.67
2022-08-10T18:19:52.682Z,3.33
2022-08-10T18:22:21.051Z,4.57
2022-08-10T18:24:50.157Z,3.40
2022-08-10T18:27:18.648Z,4.07
2022-08-10T18:29:49.270Z,3.13
2022-08-10T18:32:19.701Z,5.45
2022-08-10T18:34:48.264Z,3.80
2022-08-10T18:37:20.162Z,3.97
2022-08-10T18:39:49.938Z,3.70
2022-08-10T18:42:19.251Z,3.45
2022-08-10T18:44:50.207Z,3.20
2022-08-10T18:47:21.983Z,3.72
2022-08-10T18:49:58.620Z,3.05
2022-08-10T18:52:28.072Z,3.30
2022-08-10T18:54:59.799Z,3.28
2022-08-10T18:57:33.261Z,3.35
2022-08-10T19:00:10.115Z,3.25
2022-08-10T19:02:45.054Z,2.80
2022-08-10T19:05:32.150Z,3.97
2022-08-10T19:08:14.959Z,4.20
2022-08-10T19:11:01.441Z,3.50
2022-08-10T19:13:32.015Z,3.28
2022-08-10T19:16:01.736Z,3.33
2022-08-10T19:18:33.220Z,3.33
2022-08-10T19:21:05.771Z,3.08
2022-08-10T19:23:51.362Z,6.38
2022-08-10T19:26:43.880Z,4.72
2022-08-10T19:30:08.254Z,3.00
2022-08-10T19:32:28.153Z,3.45
2022-08-10T19:35:02.097Z,6.30
2022-08-10T19:37:33.257Z,4.07
2022-08-10T19:40:09.864Z,5.22
2022-08-10T19:42:41.204Z,3.13
2022-08-10T19:46:00.776Z,2.97
2022-08-10T19:48:10.357Z,4.00
2022-08-10T19:50:41.623Z,3.20
2022-08-10T19:53:14.263Z,3.65
2022-08-10T19:55:43.901Z,3.60
2022-08-10T19:58:17.846Z,3.42
2022-08-10T20:00:50.490Z,3.60
2022-08-10T20:03:21.789Z,3.22
2022-08-10T20:06:19.144Z,3.47
2022-08-10T20:08:44.944Z,5.28
2022-08-10T20:11:45.805Z,10.50
2022-08-10T20:14:21.194Z,3.40
2022-08-10T20:16:51.088Z,3.50
2022-08-10T20:19:23.632Z,6.70
2022-08-10T20:21:55.256Z,3.25
2022-08-10T20:24:27.428Z,3.20
2022-08-10T20:27:08.749Z,3.42
2022-08-10T20:29:58.262Z,3.97
2022-08-10T20:32:29.268Z,4.43
2022-08-10T20:34:57.599Z,3.45
2022-08-10T20:37:45.181Z,3.17
2022-08-10T20:40:20.367Z,4.28
2022-08-10T20:42:50.970Z,3.47
2022-08-10T20:45:22.420Z,3.03
2022-08-10T20:47:54.834Z,7.07
2022-08-10T20:50:28.731Z,3.65
2022-08-10T20:53:00.404Z,3.47
2022-08-10T20:55:33.115Z,2.88
2022-08-10T20:58:45.467Z,3.17
2022-08-10T21:01:17.407Z,3.15
2022-08-10T21:03:53.852Z,3.13
2022-08-10T21:06:42.038Z,3.20
2022-08-10T21:09:25.802Z,4.15
2022-08-10T21:11:59.545Z,5.50
2022-08-10T21:14:33.446Z,2.90
2022-08-10T21:17:09.732Z,3.20
2022-08-10T21:19:56.026Z,3.17
2022-08-10T21:22:28.896Z,3.65
2022-08-10T21:24:59.876Z,3.55
2022-08-10T21:27:48.527Z,3.75
2022-08-10T21:30:17.066Z,4.15
2022-08-10T21:32:54.392Z,4.35
2022-08-10T21:35:37.005Z,4.40
2022-08-10T21:38:08.060Z,4.80
2022-08-10T21:40:43.697Z,4.72
2022-08-10T21:43:52.264Z,4.55
2022-08-10T21:46:54.984Z,4.32
2022-08-10T21:49:48.607Z,4.72
2022-08-10T21:52:40.605Z,4.70
2022-08-10T21:55:57.581Z,5.50
2022-08-10T21:58:41.874Z,6.60
2022-08-10T22:01:39.583Z,5.13
2022-08-10T22:04:25.860Z,5.85
2022-08-10T22:07:11.592Z,5.97
2022-08-10T22:10:01.686Z,7.30
2022-08-10T22:12:51.862Z,7.57
2022-08-10T22:16:05.658Z,10.98
2022-08-10T22:18:58.726Z,14.32
2022-08-10T22:21:54.460Z,13.48
2022-08-10T22:24:44.627Z,20.58
2022-08-10T22:27:47.374Z,21.05
2022-08-10T22:31:14.939Z,18.02
2022-08-10T22:33:59.470Z,22.67
2022-08-10T22:36:50.931Z,21.30
2022-08-10T22:40:07.428Z,16.85
2022-08-10T22:42:58.972Z,22.83
2022-08-10T22:45:57.450Z,19.23
2022-08-10T22:48:42.868Z,16.35
2022-08-10T22:51:17.046Z,16.73
2022-08-10T22:54:03.836Z,16.58
2022-08-10T22:56:55.534Z,17.40
2022-08-10T22:59:27.291Z,16.08
2022-08-10T23:02:07.694Z,15.95
2022-08-10T23:04:45.048Z,15.63
2022-08-10T23:07:17.038Z,15.75
2022-08-10T23:09:46.135Z,15.15
2022-08-10T23:12:14.983Z,16.17
2022-08-10T23:14:45.212Z,15.48
2022-08-10T23:18:02.123Z,16.40
2022-08-10T23:20:30.944Z,16.58
2022-08-10T23:23:07.452Z,16.15
2022-08-10T23:25:56.824Z,15.50
2022-08-10T23:28:39.017Z,14.63
2022-08-10T23:31:15.074Z,15.60
2022-08-10T23:33:45.762Z,16.20
2022-08-10T23:36:34.244Z,15.80
2022-08-10T23:39:26.212Z,15.60
2022-08-10T23:41:54.849Z,16.45
2022-08-10T23:44:23.664Z,15.70
2022-08-10T23:46:51.816Z,13.82
2022-08-10T23:49:20.963Z,15.82
2022-08-10T23:51:55.078Z,13.27
2022-08-10T23:54:24.321Z,14.93
2022-08-10T23:56:53.212Z,13.73
2022-08-10T23:59:22.391Z,14.65
